Time;durP1;ratioP1;P1;durP2;ratioP2;P2;SDS_P1;SDS_P2;PMS_P1;PMS_P2;Temp;Humidity;BMP_temperature;BMP_pressure;BME280_temperature;BME280_humidity;BME280_pressure;Samples;Min_cycle;Max_cycle;Signal;HPM_P1;HPM_P2
2022/04/06 00:01:27;;;;;;;14.70;11.13;;;10.80;99.90;;;;;;5049981;28;20530;-49
2022/04/06 00:03:55;;;;;;;22.30;15.60;;;10.80;99.90;;;;;;5025748;28;20837;-49
2022/04/06 00:06:22;;;;;;;25.73;17.57;;;10.80;99.90;;;;;;5018066;28;20992;-48
2022/04/06 00:08:49;;;;;;;20.17;13.77;;;10.80;99.90;;;;;;5020581;28;20479;-50
2022/04/06 00:11:16;;;;;;;27.97;18.13;;;10.80;99.90;;;;;;5020719;28;20540;-49
2022/04/06 00:13:42;;;;;;;25.33;14.57;;;10.90;99.90;;;;;;5030206;28;20513;-49
2022/04/06 00:16:09;;;;;;;18.80;15.40;;;10.90;99.90;;;;;;5054215;28;20809;-50
2022/04/06 00:18:36;;;;;;;18.50;12.80;;;10.90;99.90;;;;;;5029140;28;21009;-49
2022/04/06 00:21:04;;;;;;;19.00;14.07;;;10.90;99.90;;;;;;5020960;28;20478;-50
2022/04/06 00:23:30;;;;;;;16.33;13.07;;;10.90;99.90;;;;;;5044241;28;20504;-49
2022/04/06 00:25:57;;;;;;;23.57;16.80;;;10.80;99.90;;;;;;5030447;28;20477;-49
2022/04/06 00:28:24;;;;;;;30.63;14.53;;;10.90;99.90;;;;;;5026418;28;20989;-48
2022/04/06 00:30:51;;;;;;;18.77;13.07;;;10.80;99.90;;;;;;5017746;28;20483;-49
2022/04/06 00:33:17;;;;;;;18.40;13.03;;;10.80;99.90;;;;;;5018652;28;20832;-50
2022/04/06 00:35:44;;;;;;;15.20;9.10;;;10.80;99.90;;;;;;5016844;28;20487;-49
2022/04/06 00:38:12;;;;;;;19.83;15.03;;;10.70;99.90;;;;;;5019880;28;20487;-49
2022/04/06 00:40:39;;;;;;;22.00;13.10;;;10.80;99.90;;;;;;5049731;28;20494;-48
2022/04/06 00:43:07;;;;;;;17.30;11.10;;;10.80;99.90;;;;;;5047029;28;20860;-49
2022/04/06 00:45:34;;;;;;;20.37;13.97;;;10.80;99.90;;;;;;5039575;28;20579;-48
2022/04/06 00:48:01;;;;;;;22.13;15.97;;;10.90;99.90;;;;;;5045685;28;20497;-48
2022/04/06 00:50:28;;;;;;;24.93;9.87;;;10.80;99.90;;;;;;5058328;28;20530;-49
2022/04/06 00:52:57;;;;;;;14.73;10.83;;;10.90;99.90;;;;;;5029028;28;20484;-49
2022/04/06 00:55:28;;;;;;;19.17;14.07;;;10.80;99.90;;;;;;5069967;28;20519;-49
2022/04/06 00:57:54;;;;;;;17.13;12.90;;;10.80;99.90;;;;;;5038364;28;20491;-50
2022/04/06 01:00:22;;;;;;;19.13;13.07;;;10.90;99.90;;;;;;5054209;28;20478;-50
2022/04/06 01:02:49;;;;;;;22.50;15.13;;;10.80;99.90;;;;;;5039538;28;20489;-49
2022/04/06 01:05:15;;;;;;;20.63;10.87;;;10.80;99.90;;;;;;5039613;28;20478;-50
2022/04/06 01:07:47;;;;;;;18.43;13.13;;;10.80;99.90;;;;;;5062995;28;20484;-49
2022/04/06 01:10:14;;;;;;;17.20;12.57;;;10.90;99.90;;;;;;5016510;28;20528;-48
2022/04/06 01:12:46;;;;;;;15.67;11.07;;;10.90;99.90;;;;;;5063321;28;20504;-49
2022/04/06 01:15:14;;;;;;;16.00;11.03;;;10.80;99.90;;;;;;5041897;28;20557;-48
2022/04/06 01:17:40;;;;;;;14.60;10.80;;;10.80;99.90;;;;;;5040932;28;20478;-48
2022/04/06 01:20:09;;;;;;;16.60;11.97;;;10.80;99.90;;;;;;5042633;28;20487;-48
2022/04/06 01:22:37;;;;;;;19.40;13.00;;;10.80;99.90;;;;;;5059575;28;20489;-48
2022/04/06 01:25:06;;;;;;;16.83;12.73;;;10.80;99.90;;;;;;5050440;28;20536;-49
2022/04/06 01:27:33;;;;;;;18.70;13.67;;;10.80;99.90;;;;;;5039675;28;20500;-48
2022/04/06 01:29:59;;;;;;;22.17;13.30;;;10.80;99.90;;;;;;5041084;28;20910;-49
2022/04/06 01:32:30;;;;;;;17.90;13.03;;;10.70;99.90;;;;;;5042655;28;20486;-48
2022/04/06 01:34:57;;;;;;;16.43;8.43;;;10.70;99.90;;;;;;5046402;28;21038;-49
2022/04/06 01:37:24;;;;;;;12.43;9.50;;;10.80;99.90;;;;;;5054777;28;20473;-49
2022/04/06 01:39:52;;;;;;;18.63;12.40;;;10.70;99.90;;;;;;5041889;28;20485;-48
2022/04/06 01:42:21;;;;;;;22.50;16.97;;;10.70;99.90;;;;;;5074737;28;20776;-48
2022/04/06 01:44:50;;;;;;;14.10;10.13;;;10.70;99.90;;;;;;5043896;28;20495;-48
2022/04/06 01:47:19;;;;;;;26.67;16.80;;;10.80;99.90;;;;;;5056661;28;20483;-48
2022/04/06 01:52:32;;;;;;;24.90;14.47;;;10.80;99.90;;;;;;5057705;28;20539;-49
2022/04/06 01:55:02;;;;;;;17.17;12.60;;;10.90;99.90;;;;;;5043828;28;20512;-48
2022/04/06 01:57:29;;;;;;;19.80;11.67;;;10.90;99.90;;;;;;5058127;28;20570;-48
2022/04/06 01:59:56;;;;;;;23.10;16.70;;;10.90;99.90;;;;;;5043336;28;20490;-50
2022/04/06 02:02:25;;;;;;;23.50;16.07;;;10.90;99.90;;;;;;5029938;28;20546;-48
2022/04/06 02:04:52;;;;;;;25.03;17.17;;;10.90;99.90;;;;;;5019135;28;20487;-49
2022/04/06 02:07:19;;;;;;;27.27;18.87;;;10.80;99.90;;;;;;5015956;28;20478;-48
2022/04/06 02:09:45;;;;;;;28.00;21.10;;;10.80;99.90;;;;;;5038479;28;20496;-49
2022/04/06 02:12:14;;;;;;;38.20;22.50;;;10.60;99.90;;;;;;5042994;28;20495;-48
2022/04/06 02:14:42;;;;;;;32.53;22.53;;;10.60;99.90;;;;;;5041564;28;20492;-48
2022/04/06 02:17:10;;;;;;;30.90;18.83;;;10.60;99.90;;;;;;5043445;28;20481;-48
2022/04/06 02:19:38;;;;;;;26.00;17.57;;;10.60;99.90;;;;;;5042226;28;20506;-48
2022/04/06 02:22:06;;;;;;;33.30;20.40;;;10.60;99.90;;;;;;5041307;28;20556;-48
2022/04/06 02:24:34;;;;;;;32.90;22.67;;;10.60;99.90;;;;;;5039737;28;20482;-48
2022/04/06 02:27:01;;;;;;;37.37;17.23;;;10.60;99.90;;;;;;5046776;28;20489;-48
2022/04/06 02:29:29;;;;;;;22.37;14.17;;;10.60;99.90;;;;;;5042464;28;20519;-49
2022/04/06 02:31:56;;;;;;;25.97;17.57;;;10.60;99.90;;;;;;5056844;28;21477;-48
2022/04/06 02:34:23;;;;;;;22.40;12.73;;;10.60;99.90;;;;;;5040352;28;20971;-48
2022/04/06 02:36:49;;;;;;;26.73;16.10;;;10.60;99.90;;;;;;5043456;28;20497;-48
2022/04/06 02:39:16;;;;;;;29.17;17.63;;;10.60;99.90;;;;;;5040298;28;20510;-48
2022/04/06 02:41:43;;;;;;;35.43;20.27;;;10.50;99.90;;;;;;5042451;28;20475;-48
2022/04/06 02:44:10;;;;;;;28.13;15.57;;;10.60;99.90;;;;;;5055508;28;20969;-48
2022/04/06 02:46:38;;;;;;;26.37;17.90;;;10.60;99.90;;;;;;5042573;28;21381;-49
2022/04/06 02:49:05;;;;;;;19.17;11.50;;;10.60;99.90;;;;;;5041739;28;20479;-50
2022/04/06 02:51:32;;;;;;;27.80;17.60;;;10.60;99.90;;;;;;5043178;28;20478;-49
2022/04/06 02:53:58;;;;;;;27.03;15.13;;;10.60;99.90;;;;;;5040939;28;20565;-49
2022/04/06 02:56:25;;;;;;;33.10;16.43;;;10.60;99.90;;;;;;5052384;28;20489;-49
2022/04/06 02:58:52;;;;;;;27.73;17.37;;;10.60;99.90;;;;;;5041115;28;20483;-48
2022/04/06 03:01:18;;;;;;;30.97;18.87;;;10.60;99.90;;;;;;5030372;28;20484;-48
2022/04/06 03:03:46;;;;;;;37.00;17.90;;;10.60;99.90;;;;;;5032446;28;20495;-48
2022/04/06 03:06:13;;;;;;;33.20;21.60;;;10.50;99.90;;;;;;5034369;28;20499;-48
2022/04/06 03:08:41;;;;;;;29.40;16.73;;;10.50;99.90;;;;;;5032184;28;20498;-48
2022/04/06 03:11:08;;;;;;;28.30;16.97;;;10.60;99.90;;;;;;5032601;28;20798;-49
2022/04/06 03:13:35;;;;;;;27.40;15.63;;;10.70;99.90;;;;;;5056356;28;20481;-48
2022/04/06 03:16:02;;;;;;;29.03;17.23;;;10.70;99.90;;;;;;5033336;28;20473;-51
2022/04/06 03:18:28;;;;;;;30.10;22.13;;;10.80;99.90;;;;;;5020132;28;20480;-48
2022/04/06 03:20:56;;;;;;;33.27;18.97;;;10.70;99.90;;;;;;5049089;28;20474;-49
2022/04/06 03:23:23;;;;;;;31.40;20.37;;;10.70;99.90;;;;;;5040445;28;20481;-48
2022/04/06 03:25:50;;;;;;;25.20;16.17;;;10.70;99.90;;;;;;5037977;28;20902;-48
2022/04/06 03:28:17;;;;;;;31.60;19.37;;;10.70;99.90;;;;;;5058009;28;20507;-48
2022/04/06 03:30:44;;;;;;;31.60;20.67;;;10.80;99.90;;;;;;5031797;28;20487;-48
2022/04/06 03:33:13;;;;;;;32.87;18.43;;;10.70;99.90;;;;;;5019942;28;20996;-48
2022/04/06 03:35:40;;;;;;;20.40;12.20;;;10.70;99.90;;;;;;5021520;28;20583;-50
2022/04/06 03:38:08;;;;;;;32.57;21.43;;;10.70;99.90;;;;;;5013107;28;20478;-48
2022/04/06 03:40:34;;;;;;;26.07;16.27;;;10.70;99.90;;;;;;5021029;28;20479;-48
2022/04/06 03:43:01;;;;;;;18.77;14.03;;;10.70;99.90;;;;;;5018978;28;20491;-49
2022/04/06 03:45:28;;;;;;;15.90;9.70;;;10.80;99.90;;;;;;5049493;28;20481;-51
2022/04/06 03:47:55;;;;;;;15.60;11.63;;;10.70;99.90;;;;;;5038349;28;20499;-49
2022/04/06 03:50:21;;;;;;;15.53;10.90;;;10.70;99.90;;;;;;5040038;28;20481;-50
2022/04/06 03:52:48;;;;;;;13.23;7.60;;;10.80;99.90;;;;;;5054685;28;20954;-50
2022/04/06 03:55:17;;;;;;;23.90;12.13;;;10.80;99.90;;;;;;5035828;28;20487;-51
2022/04/06 03:57:43;;;;;;;12.50;6.80;;;10.80;99.90;;;;;;5036420;28;20493;-50
2022/04/06 04:00:12;;;;;;;19.50;14.00;;;10.80;99.90;;;;;;5046214;28;20507;-49
2022/04/06 04:02:39;;;;;;;18.27;11.17;;;10.90;99.90;;;;;;5041777;28;20466;-48
2022/04/06 04:05:06;;;;;;;16.87;10.90;;;10.80;99.90;;;;;;5022306;28;20504;-49
2022/04/06 04:07:37;;;;;;;12.87;7.60;;;10.80;99.90;;;;;;5028121;28;20876;-50
2022/04/06 04:10:05;;;;;;;17.93;10.33;;;10.80;99.90;;;;;;5034813;28;20478;-50
2022/04/06 04:12:33;;;;;;;10.67;7.90;;;10.90;99.90;;;;;;5021626;28;20495;-48
2022/04/06 04:15:00;;;;;;;19.13;11.93;;;10.80;99.90;;;;;;5017832;28;20561;-49
2022/04/06 04:17:27;;;;;;;20.13;10.07;;;10.90;99.90;;;;;;5020535;28;20486;-50
2022/04/06 04:19:53;;;;;;;17.87;10.73;;;10.80;99.90;;;;;;5020027;28;20483;-49
2022/04/06 04:22:20;;;;;;;13.03;10.60;;;10.90;99.90;;;;;;5021094;28;20829;-49
2022/04/06 04:24:47;;;;;;;22.30;11.80;;;10.90;99.90;;;;;;5013658;28;20479;-49
2022/04/06 04:27:13;;;;;;;19.73;14.23;;;10.80;99.90;;;;;;5033945;28;20725;-51
2022/04/06 04:29:42;;;;;;;17.27;10.87;;;10.80;99.90;;;;;;5019671;28;20480;-49
2022/04/06 04:32:10;;;;;;;15.07;9.07;;;10.80;99.90;;;;;;5038434;28;20497;-49
2022/04/06 04:34:37;;;;;;;17.63;11.33;;;10.80;99.90;;;;;;5042409;28;20494;-49
2022/04/06 04:37:04;;;;;;;16.93;8.77;;;10.80;99.90;;;;;;5025694;28;20483;-50
2022/04/06 04:39:30;;;;;;;13.00;9.57;;;10.90;99.90;;;;;;5019489;28;20487;-51
2022/04/06 04:41:57;;;;;;;12.40;8.23;;;10.90;99.90;;;;;;5028124;28;20493;-49
2022/04/06 04:44:24;;;;;;;16.60;9.90;;;10.90;99.90;;;;;;5022841;28;20555;-49
2022/04/06 04:46:52;;;;;;;21.03;11.80;;;10.80;99.90;;;;;;5023936;28;20632;-49
2022/04/06 04:49:19;;;;;;;14.80;9.70;;;10.90;99.90;;;;;;5024006;28;20474;-49
2022/04/06 04:51:45;;;;;;;17.13;10.53;;;10.90;99.90;;;;;;5025508;28;20504;-50
2022/04/06 04:54:12;;;;;;;17.70;10.47;;;10.80;99.90;;;;;;5029442;28;20493;-49
2022/04/06 04:56:41;;;;;;;16.17;7.97;;;10.90;99.90;;;;;;5038997;28;20474;-50
2022/04/06 04:59:08;;;;;;;16.20;9.90;;;10.80;99.90;;;;;;5063162;28;20485;-48
2022/04/06 05:01:35;;;;;;;11.70;8.40;;;10.80;99.90;;;;;;5042897;28;20581;-48
2022/04/06 05:04:03;;;;;;;14.53;8.23;;;10.80;99.90;;;;;;5036941;28;20488;-50
2022/04/06 05:06:30;;;;;;;23.47;11.10;;;10.80;99.90;;;;;;5043195;28;20529;-48
2022/04/06 05:08:57;;;;;;;16.63;9.23;;;10.80;99.90;;;;;;5044580;28;20505;-49
2022/04/06 05:11:24;;;;;;;27.77;13.67;;;10.80;99.90;;;;;;5042163;28;20493;-48
2022/04/06 05:13:51;;;;;;;10.77;6.70;;;10.90;99.90;;;;;;5050026;28;20477;-49
2022/04/06 05:16:18;;;;;;;18.97;10.63;;;10.80;99.90;;;;;;5043259;28;20467;-53
2022/04/06 05:18:44;;;;;;;18.60;11.20;;;10.80;99.90;;;;;;5051399;28;20569;-48
2022/04/06 05:21:13;;;;;;;25.90;11.67;;;10.90;99.90;;;;;;5050139;28;20557;-50
2022/04/06 05:23:40;;;;;;;12.23;9.73;;;10.90;99.90;;;;;;5035819;28;20903;-49
2022/04/06 05:26:07;;;;;;;12.93;10.07;;;10.80;99.90;;;;;;5036622;28;20938;-48
2022/04/06 05:28:34;;;;;;;21.10;12.13;;;10.90;99.90;;;;;;5041781;28;20482;-48
2022/04/06 05:31:00;;;;;;;14.23;9.03;;;10.90;99.90;;;;;;5038418;28;20536;-48
2022/04/06 05:33:27;;;;;;;13.57;8.80;;;10.90;99.90;;;;;;5050502;28;21534;-50
2022/04/06 05:35:54;;;;;;;13.13;8.90;;;;;;;;;;5042875;28;20470;-50
2022/04/06 05:38:22;;;;;;;9.43;7.53;;;10.90;99.90;;;;;;5043661;28;20486;-49
2022/04/06 05:40:49;;;;;;;10.90;7.97;;;10.90;99.90;;;;;;5022676;28;20479;-51
2022/04/06 05:43:16;;;;;;;13.57;10.77;;;10.80;99.90;;;;;;5019746;28;20556;-50
2022/04/06 05:45:42;;;;;;;14.33;7.97;;;10.80;99.90;;;;;;5019575;28;20495;-50
2022/04/06 05:48:10;;;;;;;13.47;9.73;;;10.90;99.90;;;;;;5020198;28;20478;-48
2022/04/06 05:50:38;;;;;;;14.57;9.37;;;11.00;99.90;;;;;;5019079;28;20483;-48
2022/04/06 05:53:05;;;;;;;15.37;9.63;;;10.90;99.90;;;;;;5022829;28;20969;-49
2022/04/06 05:55:33;;;;;;;10.43;8.07;;;10.90;99.90;;;;;;5017196;28;20496;-49
2022/04/06 05:58:00;;;;;;;14.07;9.17;;;10.90;99.90;;;;;;5018876;28;20558;-49
2022/04/06 06:00:26;;;;;;;17.23;12.63;;;10.90;99.90;;;;;;5008918;28;21140;-48
2022/04/06 06:02:53;;;;;;;18.13;13.40;;;10.90;99.90;;;;;;5032196;28;20475;-50
2022/04/06 06:05:20;;;;;;;15.27;12.20;;;10.90;99.90;;;;;;5020677;28;20473;-48
2022/04/06 06:07:46;;;;;;;23.30;14.27;;;10.90;99.90;;;;;;5033297;28;20483;-48
2022/04/06 06:10:13;;;;;;;13.50;9.23;;;10.90;99.90;;;;;;5043377;28;20482;-49
2022/04/06 06:12:41;;;;;;;12.90;8.90;;;10.90;99.90;;;;;;5053189;28;20489;-49
2022/04/06 06:15:08;;;;;;;16.80;11.27;;;10.90;99.90;;;;;;5022560;28;20488;-48
2022/04/06 06:17:38;;;;;;;12.60;7.37;;;10.90;99.90;;;;;;5021233;28;20495;-49
2022/04/06 06:20:06;;;;;;;17.10;12.23;;;10.90;99.90;;;;;;5021719;28;20494;-48
2022/04/06 06:22:33;;;;;;;16.83;10.37;;;10.90;99.90;;;;;;5023463;28;20484;-48
2022/04/06 06:25:00;;;;;;;17.27;13.10;;;11.00;99.90;;;;;;5017447;28;20473;-48
2022/04/06 06:27:27;;;;;;;16.10;10.10;;;11.00;99.90;;;;;;5022111;28;20488;-50
2022/04/06 06:29:55;;;;;;;13.50;10.13;;;11.00;99.90;;;;;;5016358;28;20487;-49
2022/04/06 06:32:21;;;;;;;13.30;8.40;;;11.10;99.90;;;;;;5034471;28;20487;-51
2022/04/06 06:34:48;;;;;;;19.80;6.70;;;11.10;99.90;;;;;;5038493;28;21145;-49
2022/04/06 06:37:15;;;;;;;14.63;10.00;;;11.10;99.90;;;;;;5035648;28;20510;-48
2022/04/06 06:39:41;;;;;;;12.20;8.83;;;11.10;99.90;;;;;;5022413;28;20479;-48
2022/04/06 06:42:09;;;;;;;16.50;10.57;;;11.20;99.90;;;;;;5045148;28;20490;-50
2022/04/06 06:44:35;;;;;;;11.90;7.57;;;11.20;99.90;;;;;;5054849;28;20506;-49
2022/04/06 06:47:04;;;;;;;11.60;8.60;;;11.20;99.90;;;;;;5040707;28;20502;-49
2022/04/06 06:49:31;;;;;;;13.83;6.37;;;11.20;99.90;;;;;;5025551;28;20485;-51
2022/04/06 06:51:57;;;;;;;11.70;9.10;;;11.20;99.90;;;;;;5020849;28;21094;-50
2022/04/06 06:54:24;;;;;;;7.57;6.80;;;11.20;99.90;;;;;;5033127;28;20499;-51
2022/04/06 06:56:51;;;;;;;19.07;8.43;;;11.20;99.90;;;;;;5031548;28;20520;-49
2022/04/06 06:59:17;;;;;;;6.83;3.93;;;11.30;99.90;;;;;;5034370;28;20474;-49
2022/04/06 07:01:44;;;;;;;8.87;6.90;;;11.30;99.90;;;;;;5025913;28;20511;-49
2022/04/06 07:04:12;;;;;;;8.77;6.50;;;11.40;99.00;;;;;;5019231;28;20511;-48
2022/04/06 07:06:39;;;;;;;5.90;4.90;;;11.40;99.30;;;;;;5022527;28;20562;-48
2022/04/06 07:09:06;;;;;;;9.87;8.37;;;11.40;99.10;;;;;;5023583;28;20884;-48
2022/04/06 07:11:32;;;;;;;6.93;4.13;;;11.30;98.50;;;;;;5059538;28;20478;-50
2022/04/06 07:13:59;;;;;;;5.73;4.70;;;11.30;98.70;;;;;;5017262;28;20489;-49
2022/04/06 07:16:26;;;;;;;8.67;6.03;;;11.30;98.40;;;;;;5024576;28;20473;-48
2022/04/06 07:18:52;;;;;;;5.37;4.60;;;11.40;98.00;;;;;;5007771;28;20482;-54
2022/04/06 07:21:20;;;;;;;9.53;4.83;;;11.40;98.20;;;;;;5053134;28;20997;-50
2022/04/06 07:23:47;;;;;;;8.20;4.30;;;11.50;97.70;;;;;;5040137;28;20479;-49
2022/04/06 07:26:16;;;;;;;7.90;4.73;;;11.40;98.00;;;;;;5057574;28;20487;-49
2022/04/06 07:28:44;;;;;;;6.73;4.57;;;11.40;98.20;;;;;;5060681;28;20512;-50
2022/04/06 07:31:11;;;;;;;11.70;5.50;;;11.50;96.80;;;;;;5055449;28;20479;-48
2022/04/06 07:33:38;;;;;;;11.73;5.43;;;11.60;96.70;;;;;;5053671;28;20581;-50
2022/04/06 07:36:05;;;;;;;9.83;4.70;;;11.60;95.80;;;;;;5039886;28;20479;-49
2022/04/06 07:38:34;;;;;;;18.00;6.40;;;;;;;;;;5055439;28;20979;-49
2022/04/06 07:41:01;;;;;;;11.93;6.47;;;11.70;96.80;;;;;;5041805;28;20487;-48
2022/04/06 07:43:27;;;;;;;5.20;3.93;;;11.60;96.50;;;;;;5042056;28;20479;-49
2022/04/06 07:45:54;;;;;;;4.80;3.73;;;11.60;96.40;;;;;;5041335;28;20490;-49
2022/04/06 07:48:22;;;;;;;13.73;4.17;;;11.60;95.60;;;;;;5043985;28;20481;-49
2022/04/06 07:50:49;;;;;;;10.93;4.70;;;11.60;95.90;;;;;;5061094;28;20641;-50
2022/04/06 07:53:17;;;;;;;4.53;3.70;;;11.60;96.30;;;;;;5042404;28;20491;-49
2022/04/06 07:55:46;;;;;;;10.07;5.27;;;11.50;95.70;;;;;;5051588;28;20489;-49
2022/04/06 07:58:13;;;;;;;8.37;4.00;;;11.50;95.80;;;;;;5053875;28;20930;-49
2022/04/06 08:00:40;;;;;;;8.00;5.60;;;11.60;95.90;;;;;;5059472;28;20505;-49
2022/04/06 08:03:07;;;;;;;13.83;6.17;;;11.70;96.30;;;;;;5053687;28;20490;-49
2022/04/06 08:05:33;;;;;;;9.60;5.73;;;11.70;96.60;;;;;;5052577;28;20504;-49
2022/04/06 08:08:00;;;;;;;9.00;6.03;;;11.70;96.30;;;;;;5043689;28;20489;-49
2022/04/06 08:10:30;;;;;;;11.10;5.87;;;11.70;95.80;;;;;;5030210;28;20847;-49
2022/04/06 08:12:58;;;;;;;10.23;5.83;;;11.80;96.10;;;;;;5020048;28;20504;-50
2022/04/06 08:15:25;;;;;;;16.70;6.23;;;11.80;96.60;;;;;;5027596;28;20558;-49
2022/04/06 08:17:52;;;;;;;16.40;6.27;;;11.80;96.30;;;;;;5030729;28;21017;-49
2022/04/06 08:20:20;;;;;;;6.50;4.70;;;11.90;96.50;;;;;;5044486;28;20497;-49
2022/04/06 08:22:49;;;;;;;5.87;3.50;;;11.80;95.80;;;;;;5043904;28;20489;-49
2022/04/06 08:25:17;;;;;;;13.60;6.80;;;11.70;95.60;;;;;;5040896;28;20832;-49
2022/04/06 08:27:44;;;;;;;8.47;5.53;;;11.70;96.00;;;;;;5039242;28;20485;-49
2022/04/06 08:30:13;;;;;;;13.07;7.13;;;11.70;96.10;;;;;;5028910;28;20484;-48
2022/04/06 08:32:40;;;;;;;14.50;7.60;;;11.70;96.20;;;;;;5027852;28;20492;-48
2022/04/06 08:35:09;;;;;;;7.83;4.67;;;11.70;96.10;;;;;;5032053;28;20538;-48
2022/04/06 08:37:37;;;;;;;8.00;5.50;;;11.60;95.50;;;;;;5027509;28;20569;-49
2022/04/06 08:40:07;;;;;;;10.07;6.40;;;11.60;95.70;;;;;;5034041;28;20483;-49
2022/04/06 08:42:35;;;;;;;15.33;5.33;;;11.50;95.40;;;;;;5031881;28;20493;-48
2022/04/06 08:45:02;;;;;;;15.80;8.17;;;11.50;94.60;;;;;;5020266;28;20934;-50
2022/04/06 08:47:32;;;;;;;10.73;5.50;;;11.50;94.80;;;;;;5033370;28;20560;-49
2022/04/06 08:49:59;;;;;;;9.93;5.10;;;11.50;95.00;;;;;;5042551;28;20509;-49
2022/04/06 08:52:25;;;;;;;13.23;5.30;;;11.40;94.70;;;;;;5062896;28;20533;-50
2022/04/06 08:54:52;;;;;;;11.30;5.63;;;11.40;94.90;;;;;;5051157;28;20492;-49
2022/04/06 08:57:20;;;;;;;16.20;6.27;;;11.50;95.60;;;;;;5058913;28;20487;-48
2022/04/06 08:59:48;;;;;;;16.07;6.33;;;11.60;94.90;;;;;;5061363;28;20496;-48
2022/04/06 09:02:19;;;;;;;11.73;5.40;;;11.60;94.80;;;;;;5047763;28;21057;-49
2022/04/06 09:04:51;;;;;;;9.80;5.40;;;11.60;95.00;;;;;;5038114;28;20536;-49
2022/04/06 09:07:20;;;;;;;14.20;5.60;;;11.60;95.60;;;;;;5048992;28;20503;-49
2022/04/06 09:09:51;;;;;;;13.30;5.10;;;11.60;95.30;;;;;;5050608;28;20511;-48
2022/04/06 09:12:20;;;;;;;4.20;3.80;;;11.60;94.50;;;;;;5052762;28;20492;-48
2022/04/06 09:14:47;;;;;;;9.07;6.13;;;11.70;94.70;;;;;;5054351;28;20569;-48
2022/04/06 09:17:20;;;;;;;11.57;6.97;;;11.50;95.10;;;;;;5057362;28;20492;-49
2022/04/06 09:19:50;;;;;;;13.37;5.47;;;11.50;95.30;;;;;;5063902;28;20573;-49
2022/04/06 09:22:17;;;;;;;11.27;6.97;;;11.50;95.50;;;;;;5063603;28;20493;-49
2022/04/06 09:24:44;;;;;;;5.13;4.47;;;11.60;95.00;;;;;;5059121;28;20898;-50
2022/04/06 09:27:11;;;;;;;14.90;4.50;;;11.60;95.00;;;;;;5043327;28;20548;-49
2022/04/06 09:29:38;;;;;;;12.97;5.10;;;11.60;95.20;;;;;;5027998;28;21028;-49
2022/04/06 09:32:09;;;;;;;8.23;6.40;;;11.70;95.50;;;;;;5017515;28;20516;-50
2022/04/06 09:34:36;;;;;;;10.33;4.57;;;11.70;95.10;;;;;;5032331;28;20523;-48
2022/04/06 09:37:25;;;;;;;7.40;4.63;;;11.80;96.10;;;;;;5023162;28;20627;-49
2022/04/06 09:39:52;;;;;;;9.70;4.30;;;11.80;95.10;;;;;;5024336;28;20484;-50
2022/04/06 09:42:21;;;;;;;11.10;4.90;;;11.80;94.90;;;;;;5024437;28;20520;-49
2022/04/06 09:47:51;;;;;;;5.13;4.30;;;11.60;94.20;;;;;;4980528;28;20969;-49
2022/04/06 09:50:20;;;;;;;7.70;4.23;;;11.70;94.50;;;;;;5028148;28;20483;-48
2022/04/06 09:52:51;;;;;;;3.93;2.90;;;11.60;94.10;;;;;;5035944;28;20495;-48
2022/04/06 09:55:19;;;;;;;16.40;7.17;;;11.70;94.20;;;;;;5027463;28;20624;-49
2022/04/06 09:57:49;;;;;;;10.13;4.53;;;11.80;94.30;;;;;;5040456;28;20525;-48
2022/04/06 10:00:18;;;;;;;5.43;4.10;;;11.70;94.00;;;;;;5040490;28;20490;-49
2022/04/06 10:02:48;;;;;;;9.90;5.17;;;11.80;94.00;;;;;;5035317;28;20476;-49
2022/04/06 10:05:15;;;;;;;9.30;4.33;;;11.80;93.70;;;;;;5034007;28;20520;-49
2022/04/06 10:07:43;;;;;;;7.20;3.30;;;11.90;94.10;;;;;;5043494;28;20561;-49
2022/04/06 10:10:12;;;;;;;7.37;3.90;;;11.90;93.40;;;;;;5039372;28;21364;-49
2022/04/06 10:12:39;;;;;;;6.57;4.90;;;11.90;93.40;;;;;;5029847;28;20590;-49
2022/04/06 10:15:07;;;;;;;8.80;4.63;;;11.90;94.10;;;;;;5030782;28;20479;-49
2022/04/06 10:17:36;;;;;;;12.07;4.37;;;11.80;93.30;;;;;;5027954;28;20498;-50
2022/04/06 10:20:20;;;;;;;9.70;4.87;;;12.00;93.50;;;;;;5022520;28;20493;-50
2022/04/06 10:22:59;;;;;;;6.20;3.50;;;12.00;93.80;;;;;;5022362;28;20503;-49
2022/04/06 10:25:37;;;;;;;9.50;3.83;;;12.10;93.40;;;;;;5021784;28;20483;-49
2022/04/06 10:28:10;;;;;;;7.27;3.40;;;12.20;93.20;;;;;;5033666;28;20488;-49
2022/04/06 10:30:36;;;;;;;9.23;3.77;;;12.20;93.10;;;;;;5043693;28;20489;-50
2022/04/06 10:33:19;;;;;;;4.60;3.47;;;12.20;92.90;;;;;;5025875;28;20494;-50
2022/04/06 10:35:46;;;;;;;9.27;3.70;;;12.20;92.90;;;;;;5019279;28;20484;-50
2022/04/06 10:38:20;;;;;;;10.60;3.70;;;12.20;93.00;;;;;;5011900;28;20479;-49
2022/04/06 10:40:59;;;;;;;5.60;3.53;;;12.20;92.70;;;;;;5035548;28;20581;-49
2022/04/06 10:43:51;;;;;;;6.30;2.70;;;12.20;92.90;;;;;;5021870;28;20476;-50
2022/04/06 10:46:32;;;;;;;4.40;3.90;;;12.20;92.90;;;;;;5030586;28;21063;-48
2022/04/06 10:49:01;;;;;;;8.40;3.47;;;12.20;93.50;;;;;;5039214;28;21377;-49
2022/04/06 10:51:30;;;;;;;6.13;4.60;;;12.10;93.70;;;;;;5042885;28;20487;-49
2022/04/06 10:53:57;;;;;;;10.90;4.27;;;12.20;93.00;;;;;;5039475;28;20554;-48
2022/04/06 10:56:25;;;;;;;11.13;5.00;;;12.30;93.30;;;;;;5040583;28;20482;-49
2022/04/06 10:59:11;;;;;;;4.03;3.60;;;12.30;93.90;;;;;;5043245;28;20477;-49
2022/04/06 11:01:44;;;;;;;12.60;4.00;;;12.20;92.50;;;;;;5027247;28;20499;-48
2022/04/06 11:04:17;;;;;;;5.83;3.83;;;12.20;92.70;;;;;;5017091;28;20489;-50
2022/04/06 11:07:00;;;;;;;11.43;5.93;;;12.40;93.90;;;;;;5036766;28;20481;-48
2022/04/06 11:12:16;;;;;;;10.93;3.00;;;12.30;92.40;;;;;;5034329;28;20476;-48
2022/04/06 11:14:44;;;;;;;4.23;3.00;;;12.30;92.70;;;;;;5008538;28;20480;-48
2022/04/06 11:17:38;;;;;;;22.63;5.73;;;12.10;92.60;;;;;;5033273;28;20495;-48
2022/04/06 11:20:08;;;;;;;3.40;2.37;;;12.10;92.80;;;;;;5018520;28;21421;-50
2022/04/06 11:22:35;;;;;;;8.17;3.03;;;12.10;92.20;;;;;;5021343;28;20479;-55
2022/04/06 11:25:02;;;;;;;2.90;2.60;;;12.10;92.40;;;;;;5019120;28;20476;-47
2022/04/06 11:27:32;;;;;;;9.83;3.10;;;12.10;92.50;;;;;;5022044;28;20965;-48
2022/04/06 11:30:00;;;;;;;8.40;4.00;;;12.40;93.40;;;;;;5021283;28;20482;-48
2022/04/06 11:32:27;;;;;;;8.90;3.43;;;12.40;93.70;;;;;;5022158;28;20494;-50
2022/04/06 11:35:00;;;;;;;3.50;2.50;;;12.50;92.80;;;;;;5018186;28;20490;-48
2022/04/06 11:37:27;;;;;;;3.13;2.83;;;12.60;92.90;;;;;;5024857;28;20477;-48
2022/04/06 11:39:57;;;;;;;4.30;2.90;;;12.50;91.80;;;;;;5039682;28;20489;-48
2022/04/06 11:42:24;;;;;;;9.30;2.90;;;12.50;92.00;;;;;;5050386;28;20500;-48
2022/04/06 11:44:52;;;;;;;6.17;2.67;;;12.50;92.20;;;;;;5041448;28;20518;-49
2022/04/06 11:47:30;;;;;;;3.67;2.70;;;12.60;92.40;;;;;;5031436;28;20578;-48
2022/04/06 11:49:57;;;;;;;5.90;2.90;;;12.80;92.20;;;;;;5020755;28;20472;-48
2022/04/06 11:52:24;;;;;;;4.60;2.60;;;12.80;92.40;;;;;;5021117;28;20567;-48
2022/04/06 11:54:52;;;;;;;6.50;2.60;;;12.90;92.60;;;;;;5019829;28;20855;-49
2022/04/06 11:57:19;;;;;;;7.60;2.80;;;12.80;91.30;;;;;;5017591;28;20555;-48
2022/04/06 11:59:55;;;;;;;1.90;1.53;;;12.80;92.00;;;;;;5021554;28;20488;-49
2022/04/06 12:02:22;;;;;;;10.10;3.33;;;12.80;91.70;;;;;;5019867;28;20532;-49
2022/04/06 12:05:00;;;;;;;9.70;2.27;;;12.80;91.90;;;;;;5017094;28;20476;-48
2022/04/06 12:07:27;;;;;;;3.93;2.27;;;;;;;;;;5020363;28;20487;-49
2022/04/06 12:09:54;;;;;;;10.87;3.10;;;12.60;90.70;;;;;;5015541;28;20543;-49
2022/04/06 12:12:22;;;;;;;4.10;2.60;;;12.60;91.10;;;;;;5018666;28;20480;-49
2022/04/06 12:14:49;;;;;;;4.07;2.30;;;12.70;91.40;;;;;;5019476;28;20490;-49
2022/04/06 12:17:17;;;;;;;8.40;2.63;;;12.70;91.10;;;;;;5020223;28;20482;-49
2022/04/06 12:19:44;;;;;;;5.13;2.70;;;12.70;91.00;;;;;;5021591;28;20911;-50
2022/04/06 12:22:11;;;;;;;3.80;2.50;;;12.70;91.70;;;;;;5019522;28;20536;-49
2022/04/06 12:24:39;;;;;;;14.97;2.60;;;12.70;91.80;;;;;;5018650;28;20572;-49
2022/04/06 12:27:06;;;;;;;10.20;2.33;;;12.60;91.50;;;;;;5059791;28;20534;-49
2022/04/06 12:29:35;;;;;;;5.90;2.17;;;12.50;91.40;;;;;;5045035;28;20487;-49
2022/04/06 12:32:03;;;;;;;2.70;2.20;;;12.50;91.70;;;;;;5020336;28;20545;-48
2022/04/06 12:34:34;;;;;;;3.40;1.60;;;12.50;91.30;;;;;;5019626;28;20499;-49
2022/04/06 12:37:29;;;;;;;3.10;2.10;;;12.50;91.40;;;;;;5020204;28;20478;-49
2022/04/06 12:39:50;;;;;;;8.13;2.50;;;12.50;91.00;;;;;;5014283;28;21159;-48
2022/04/06 12:42:16;;;;;;;16.23;3.07;;;12.60;92.00;;;;;;5015846;28;20605;-49
2022/04/06 12:44:56;;;;;;;4.40;2.60;;;12.70;91.70;;;;;;5019608;28;20540;-49
2022/04/06 12:47:24;;;;;;;1.90;1.30;;;12.80;90.80;;;;;;5019862;28;21089;-49
2022/04/06 12:49:52;;;;;;;7.10;2.07;;;13.00;90.50;;;;;;5021100;28;20580;-48